Time;durP1;ratioP1;P1;durP2;ratioP2;P2;SDS_P1;SDS_P2;PMS_P1;PMS_P2;Temp;Humidity;BMP_temperature;BMP_pressure;BME280_temperature;BME280_humidity;BME280_pressure;Samples;Min_cycle;Max_cycle;Signal;HPM_P1;HPM_P2
2022/12/26 00:01:49;;;;;;;107.28;7.95;;;;;;;11.49;77.14;99190.53;5031280;28;20073;-78
2022/12/26 00:04:17;;;;;;;237.57;11.77;;;;;;;11.51;77.25;99175.44;5031735;28;20050;-78
2022/12/26 00:07:03;;;;;;;140.13;10.90;;;;;;;11.52;77.10;99150.78;5016507;28;20058;-78
2022/12/26 00:09:31;;;;;;;107.63;7.65;;;;;;;11.51;76.94;99146.44;5031187;28;20053;-78
2022/12/26 00:11:58;;;;;;;86.80;7.10;;;;;;;11.51;77.04;99135.91;5030869;28;20081;-79
2022/12/26 00:14:24;;;;;;;35.40;5.95;;;;;;;11.51;77.22;99122.72;5031301;28;20482;-78
2022/12/26 00:16:51;;;;;;;17.95;5.95;;;;;;;11.51;77.06;99130.63;5030634;28;20108;-78
2022/12/26 00:19:17;;;;;;;14.02;5.70;;;;;;;11.51;77.15;99133.25;5013627;28;20083;-78
2022/12/26 00:21:43;;;;;;;25.88;6.50;;;;;;;11.51;77.16;99135.91;5030776;28;20103;-79
2022/12/26 00:24:10;;;;;;;26.15;6.20;;;;;;;11.53;77.16;99130.53;5030855;28;20107;-79
2022/12/26 00:26:37;;;;;;;34.00;6.78;;;;;;;11.53;77.00;99139.28;5012861;28;20053;-78
2022/12/26 00:29:04;;;;;;;12.15;5.80;;;;;;;11.53;76.94;99133.16;5031024;28;20116;-79
2022/12/26 00:31:32;;;;;;;9.35;5.22;;;;;;;11.53;77.04;99141.91;5030703;28;20053;-78
2022/12/26 00:33:59;;;;;;;9.65;5.75;;;;;;;11.53;76.87;99141.06;5030775;28;20053;-78
2022/12/26 00:36:31;;;;;;;15.80;6.47;;;;;;;11.51;76.94;99133.25;5013115;28;20095;-78
2022/12/26 00:39:00;;;;;;;16.80;7.22;;;;;;;11.53;76.87;99146.34;5013130;28;20061;-78
2022/12/26 00:41:27;;;;;;;13.95;6.45;;;;;;;11.51;76.91;99151.72;5013140;28;20061;-78
2022/12/26 00:43:54;;;;;;;13.00;6.95;;;;;;;11.51;76.97;99140.34;5030523;28;20045;-79
2022/12/26 00:46:21;;;;;;;28.48;7.60;;;;;;;11.50;77.18;99134.22;5030514;28;20061;-78
2022/12/26 00:48:48;;;;;;;90.13;8.98;;;;;;;11.51;76.99;99141.16;5030258;28;20054;-79
2022/12/26 00:51:14;;;;;;;144.18;12.20;;;;;;;11.49;77.02;99148.34;5030463;28;20103;-78
2022/12/26 00:53:41;;;;;;;198.95;13.38;;;;;;;11.48;76.90;99144.03;5030089;28;20069;-78
2022/12/26 00:56:07;;;;;;;192.40;13.32;;;;;;;11.47;76.99;99144.97;5030516;28;20096;-78
2022/12/26 00:58:34;;;;;;;203.50;12.82;;;;;;;11.46;77.15;99153.84;5030077;28;20508;-78
2022/12/26 01:01:16;;;;;;;153.55;13.38;;;;;;;11.42;77.04;99160.28;5030446;28;20060;-79
2022/12/26 01:03:44;;;;;;;180.82;12.90;;;;;;;11.45;77.15;99162.69;5029975;28;20539;-78
2022/12/26 01:06:11;;;;;;;198.98;13.20;;;;;;;11.43;77.31;99164.59;5030211;28;20065;-79
2022/12/26 01:08:37;;;;;;;140.80;12.95;;;;;;;11.41;77.27;99156.81;5029801;28;20503;-79
2022/12/26 01:11:10;;;;;;;115.75;11.93;;;;;;;11.39;77.41;99163.09;5030217;28;20119;-79
2022/12/26 01:13:37;;;;;;;75.50;11.85;;;;;;;11.42;77.53;99170.81;5030075;28;20084;-79
2022/12/26 01:16:05;;;;;;;49.03;10.73;;;;;;;11.42;77.51;99173.44;5030095;28;20057;-78
2022/12/26 01:18:33;;;;;;;80.70;13.05;;;;;;;11.41;77.62;99163.88;5029979;28;20459;-79
2022/12/26 01:21:04;;;;;;;29.23;10.25;;;;;;;11.41;77.72;99166.50;5012715;28;20057;-78
2022/12/26 01:23:31;;;;;;;13.95;10.15;;;;;;;11.41;77.75;99171.78;5029865;28;20050;-78
2022/12/26 01:25:58;;;;;;;12.73;9.85;;;;;;;11.43;77.71;99175.13;5029977;28;20123;-78
2022/12/26 01:28:44;;;;;;;14.25;10.30;;;;;;;11.43;77.83;99180.41;5015234;28;20056;-79
2022/12/26 01:31:10;;;;;;;13.30;9.63;;;;;;;11.45;77.92;99170.59;5029831;28;20054;-79
2022/12/26 01:33:37;;;;;;;11.45;8.98;;;;;;;11.45;77.91;99174.06;5029892;28;20111;-78
2022/12/26 01:36:03;;;;;;;13.90;9.93;;;;;;;11.47;78.02;99179.22;5030101;28;20059;-78
2022/12/26 01:38:30;;;;;;;11.52;9.52;;;;;;;11.49;78.06;99185.25;5030222;28;20061;-79
2022/12/26 01:43:48;;;;;;;13.95;10.07;;;;;;;11.51;77.79;99199.16;5033738;28;20108;-78
2022/12/26 01:46:18;;;;;;;11.90;9.77;;;;;;;11.54;77.87;99182.28;5034001;28;20061;-78
2022/12/26 01:48:45;;;;;;;11.82;8.80;;;;;;;11.57;77.79;99192.63;5034141;28;20084;-78
2022/12/26 01:51:13;;;;;;;12.98;9.15;;;;;;;11.57;77.80;99192.63;5034112;28;20092;-78
2022/12/26 01:56:35;;;;;;;12.00;9.48;;;;;;;11.57;77.50;99192.63;5040816;22;20050;-84
2022/12/26 01:59:08;;;;;;;11.38;9.10;;;;;;;11.58;77.54;99196.94;4994984;28;20065;-83
2022/12/26 02:01:38;;;;;;;11.15;9.15;;;;;;;11.60;77.69;99198.50;4994649;28;20522;-81
2022/12/26 02:06:53;;;;;;;13.27;8.73;;;;;;;11.63;77.51;99181.66;4994350;28;20599;-82
2022/12/26 02:09:20;;;;;;;11.63;9.05;;;;;;;11.65;77.65;99184.16;4994816;28;20109;-82
2022/12/26 02:11:53;;;;;;;11.20;9.18;;;;;;;11.64;77.38;99187.75;4994756;28;20054;-81
2022/12/26 02:14:39;;;;;;;11.23;8.70;;;;;;;11.67;77.65;99187.53;4994699;28;20055;-81
2022/12/26 02:17:06;;;;;;;13.77;9.10;;;;;;;11.66;77.37;99183.22;4994532;28;20060;-82
2022/12/26 02:19:54;;;;;;;13.00;10.50;;;;;;;11.61;77.27;99183.53;4994394;28;20093;-83
2022/12/26 02:22:53;;;;;;;12.88;9.75;;;;;;;11.60;77.26;99185.31;4994402;28;20145;-82
2022/12/26 02:25:50;;;;;;;11.55;9.27;;;;;;;11.61;77.29;99194.09;4994084;28;20051;-82
2022/12/26 02:28:39;;;;;;;12.48;9.25;;;;;;;11.63;77.41;99199.25;4994071;28;20566;-80
2022/12/26 02:31:27;;;;;;;10.90;9.48;;;;;;;11.60;77.44;99198.50;4994199;28;20141;-84
2022/12/26 02:34:12;;;;;;;13.23;10.10;;;;;;;11.60;77.48;99206.41;4994411;28;20062;-82
2022/12/26 02:36:45;;;;;;;14.13;10.60;;;;;;;11.64;77.61;99198.28;4993877;28;20088;-83
2022/12/26 02:39:26;;;;;;;13.23;10.35;;;;;;;11.64;77.56;99206.19;4976833;28;20550;-82
2022/12/26 02:42:11;;;;;;;12.65;10.07;;;;;;;11.65;77.51;99215.78;4994155;28;20150;-83
2022/12/26 02:47:39;;;;;;;;;;;;;;;11.65;77.26;99199.97;4994309;28;20057;-82
2022/12/26 03:14:18;;;;;;;13.70;10.63;;;;;;;11.59;77.14;99204.72;4993695;28;20418;-82
2022/12/26 03:19:57;;;;;;;13.20;10.02;;;;;;;11.59;77.23;99212.63;4993673;28;20098;-82
2022/12/26 03:22:31;;;;;;;12.52;9.85;;;;;;;11.59;77.22;99206.53;4993448;28;20061;-82
2022/12/26 03:27:49;;;;;;;14.32;11.18;;;;;;;11.61;77.23;99207.25;4953392;28;20058;-84
2022/12/26 03:33:01;;;;;;;13.45;10.20;;;;;;;11.60;77.10;99214.31;4993253;28;20058;-83
2022/12/26 03:35:32;;;;;;;12.75;10.55;;;;;;;11.60;77.24;99213.50;4993237;28;20062;-82
2022/12/26 03:38:06;;;;;;;13.23;10.35;;;;;;;11.58;76.79;99218.88;4992880;28;20100;-83
2022/12/26 04:19:34;;;;;;;13.68;10.82;;;;;;;11.49;76.99;99216.03;4992087;28;20642;-82
2022/12/26 04:45:21;;;;;;;17.23;10.50;;;;;;;11.52;77.09;99219.31;4991610;28;20077;-83
2022/12/26 04:50:51;;;;;;;16.92;11.02;;;;;;;11.49;76.76;99222.16;4991435;28;20483;-83
2022/12/26 04:53:19;;;;;;;17.67;10.80;;;;;;;11.53;77.07;99223.63;4992073;28;20054;-81
2022/12/26 04:55:45;;;;;;;15.55;11.18;;;;;;;11.53;77.18;99220.13;4977898;28;20070;-80
2022/12/26 04:58:12;;;;;;;16.40;11.88;;;;;;;11.52;77.06;99231.63;4991419;28;20129;-83
2022/12/26 05:00:38;;;;;;;18.30;11.90;;;;;;;11.50;76.98;99237.00;4991619;28;20085;-83
2022/12/26 05:11:25;;;;;;;15.60;11.23;;;;;;;11.44;77.09;99262.00;4991421;28;20097;-82
2022/12/26 05:13:53;;;;;;;15.40;11.02;;;;;;;11.44;76.92;99269.06;4974204;28;20056;-80
2022/12/26 05:30:19;;;;;;;13.60;9.48;;;;;;;11.38;76.59;99282.66;4991418;28;20090;-83
2022/12/26 05:35:33;;;;;;;13.63;10.13;;;;;;;11.34;76.84;99280.22;4991332;28;20066;-82
2022/12/26 05:38:00;;;;;;;15.73;10.85;;;;;;;11.35;76.71;99273.16;4990827;28;20543;-83
2022/12/26 05:40:27;;;;;;;15.15;11.20;;;;;;;11.34;76.77;99274.13;4973901;28;20495;-83
2022/12/26 05:42:53;;;;;;;14.20;10.77;;;;;;;11.34;76.82;99261.78;4990810;28;20752;-82
2022/12/26 05:45:20;;;;;;;13.93;10.05;;;;;;;11.34;76.55;99274.13;4991167;28;20059;-83
2022/12/26 05:47:46;;;;;;;15.32;11.07;;;;;;;11.33;76.53;99268.00;4991007;28;20134;-83
2022/12/26 05:50:17;;;;;;;16.27;10.43;;;;;;;11.33;76.67;99273.25;4991084;28;20085;-83
2022/12/26 05:52:44;;;;;;;14.23;10.45;;;;;;;11.33;76.51;99270.63;4990971;28;20599;-82
2022/12/26 05:55:11;;;;;;;15.93;11.55;;;;;;;11.33;76.58;99272.44;4973485;28;20058;-82
2022/12/26 05:57:37;;;;;;;17.95;11.68;;;;;;;11.33;76.53;99280.34;4990643;28;20411;-83
2022/12/26 06:00:04;;;;;;;17.08;12.20;;;;;;;11.31;76.30;99275.19;4991233;28;20149;-82
2022/12/26 06:02:31;;;;;;;19.75;13.70;;;;;;;11.29;75.96;99269.16;4990959;28;20072;-83
2022/12/26 06:04:57;;;;;;;17.45;12.95;;;;;;;11.29;75.86;99281.50;4990731;28;20051;-83
2022/12/26 06:07:24;;;;;;;16.33;13.05;;;;;;;11.26;75.94;99277.28;4990708;28;20050;-82
2022/12/26 06:09:50;;;;;;;17.38;12.73;;;;;;;11.24;75.72;99273.91;4990916;28;20068;-82
2022/12/26 06:12:17;;;;;;;17.42;13.48;;;;;;;11.21;75.47;99267.03;4973638;28;20096;-83
2022/12/26 06:14:43;;;;;;;18.27;13.85;;;;;;;11.19;75.76;99270.72;4990908;28;20047;-82
2022/12/26 06:17:10;;;;;;;19.30;14.35;;;;;;;11.18;76.02;99271.69;4990682;28;20398;-83
2022/12/26 06:19:36;;;;;;;19.92;14.55;;;;;;;11.17;75.95;99270.84;4990823;28;20503;-82
2022/12/26 06:22:11;;;;;;;21.70;15.20;;;;;;;11.18;76.16;99274.31;4990845;28;20517;-81
2022/12/26 06:24:38;;;;;;;20.67;14.95;;;;;;;11.17;76.05;99262.06;4990406;28;20080;-83
2022/12/26 06:27:05;;;;;;;19.65;15.80;;;;;;;11.16;75.84;99252.50;4990589;28;20407;-82
2022/12/26 06:29:31;;;;;;;21.40;15.18;;;;;;;11.15;75.99;99243.75;4993615;28;20054;-81
2022/12/26 06:31:58;;;;;;;21.25;15.35;;;;;;;11.15;75.89;99253.44;4994684;28;20113;-83
2022/12/26 06:34:26;;;;;;;21.30;16.17;;;;;;;11.13;75.95;99248.28;4994189;28;20141;-81
2022/12/26 06:36:56;;;;;;;21.42;16.60;;;;;;;11.14;75.77;99242.06;4993962;28;20124;-82
2022/12/26 06:39:23;;;;;;;21.60;15.65;;;;;;;11.12;75.80;99227.31;4994287;28;20065;-81
2022/12/26 06:41:50;;;;;;;21.58;16.25;;;;;;;11.12;75.67;99227.31;4994324;28;20058;-83
2022/12/26 06:44:16;;;;;;;22.90;17.17;;;;;;;11.10;75.57;99229.22;4993869;28;20058;-83
2022/12/26 06:46:44;;;;;;;20.88;16.13;;;;;;;11.07;75.66;99227.63;4992709;28;20058;-83
2022/12/26 06:49:11;;;;;;;23.63;16.88;;;;;;;11.06;75.41;99225.91;4993793;28;20050;-81
2022/12/26 06:51:38;;;;;;;23.45;16.70;;;;;;;11.04;75.80;99230.47;4993924;28;20105;-83
2022/12/26 06:54:05;;;;;;;20.17;16.13;;;;;;;11.03;75.61;99220.88;4976763;28;20058;-83
2022/12/26 06:56:33;;;;;;;20.63;16.23;;;;;;;11.01;75.62;99223.63;4976433;28;20054;-82
2022/12/26 06:59:04;;;;;;;22.95;17.10;;;;;;;10.98;75.60;99218.56;4993908;28;20199;-82
2022/12/26 07:01:33;;;;;;;21.00;16.80;;;;;;;10.98;75.86;99218.56;4993740;28;20491;-82
2022/12/26 07:04:03;;;;;;;23.48;16.83;;;;;;;10.98;75.75;99225.63;4976324;28;20064;-80
2022/12/26 07:06:32;;;;;;;21.10;15.40;;;;;;;10.96;75.65;99231.00;4993687;28;20046;-81
2022/12/26 07:09:07;;;;;;;23.05;17.98;;;;;;;10.94;75.70;99217.06;4976649;28;20149;-82
2022/12/26 07:11:36;;;;;;;21.20;16.30;;;;;;;10.94;75.78;99235.50;4976599;28;20121;-82
2022/12/26 07:14:03;;;;;;;22.52;17.17;;;;;;;10.92;75.84;99245.31;4993469;28;20058;-81
2022/12/26 07:16:33;;;;;;;22.67;16.80;;;;;;;10.90;75.67;99247.19;4993485;28;20396;-82
2022/12/26 07:19:00;;;;;;;24.95;17.67;;;;;;;10.89;75.82;99248.13;4992363;28;20058;-82
2022/12/26 07:21:27;;;;;;;22.00;16.48;;;;;;;10.88;75.82;99259.63;4976318;28;20096;-82
2022/12/26 07:23:54;;;;;;;18.70;16.05;;;;;;;10.85;75.94;99262.44;4976047;28;20050;-82
2022/12/26 07:26:23;;;;;;;20.17;16.17;;;;;;;10.82;76.03;99269.63;4993086;28;20418;-80
2022/12/26 07:28:57;;;;;;;20.58;16.60;;;;;;;10.80;75.79;99265.38;4975765;28;20106;-81
2022/12/26 07:31:26;;;;;;;20.08;16.55;;;;;;;10.80;76.11;99276.75;4993040;28;20133;-81
2022/12/26 07:33:55;;;;;;;18.33;15.15;;;;;;;10.80;76.35;99284.66;4975907;28;20054;-80
2022/12/26 07:36:26;;;;;;;20.05;15.93;;;;;;;10.79;76.12;99279.50;4993134;28;20090;-82
2022/12/26 07:38:53;;;;;;;17.02;14.48;;;;;;;10.80;76.38;99273.28;4975832;28;20050;-82
2022/12/26 07:44:05;;;;;;;15.85;13.35;;;;;;;10.79;76.24;99274.22;4992923;28;20137;-81
2022/12/26 07:46:32;;;;;;;17.55;14.23;;;;;;;10.76;76.26;99275.28;4992869;28;20109;-82
2022/12/26 07:48:59;;;;;;;15.52;13.13;;;;;;;10.77;76.42;99282.22;4992826;28;20102;-82
2022/12/26 07:51:26;;;;;;;15.50;12.63;;;;;;;10.76;76.30;99275.28;4992728;28;20086;-81
2022/12/26 07:53:53;;;;;;;16.13;13.70;;;;;;;10.76;76.33;99272.63;4992799;28;20054;-82
2022/12/26 07:56:19;;;;;;;14.93;12.13;;;;;;;10.73;76.22;99270.19;3992656;22;20065;-78
2022/12/26 07:58:49;;;;;;;14.57;11.93;;;;;;;10.72;76.16;99265.88;4991813;28;20081;-78
2022/12/26 08:01:16;;;;;;;12.68;10.80;;;;;;;10.72;76.36;99275.59;4991939;28;20520;-79
2022/12/26 08:03:43;;;;;;;12.18;10.63;;;;;;;10.72;76.64;99275.59;4988010;28;20051;-79
2022/12/26 08:06:10;;;;;;;14.75;10.50;;;;;;;10.71;76.59;99287.03;4991343;28;20058;-79
2022/12/26 08:08:37;;;;;;;13.43;10.82;;;;;;;10.71;76.83;99273.88;4991504;28;20117;-79
2022/12/26 08:11:06;;;;;;;10.35;9.25;;;;;;;10.72;76.86;99288.75;4991829;28;20110;-78
2022/12/26 08:13:33;;;;;;;11.20;9.30;;;;;;;10.72;77.01;99286.94;4991955;28;20090;-79
2022/12/26 08:16:05;;;;;;;10.18;9.13;;;;;;;10.72;76.65;99275.59;4991642;28;20464;-79
2022/12/26 08:18:32;;;;;;;12.68;9.35;;;;;;;10.75;76.95;99292.03;4992188;28;20060;-78
2022/12/26 08:20:59;;;;;;;10.05;8.80;;;;;;;10.78;76.74;99296.25;4991718;28;20050;-78
2022/12/26 08:23:26;;;;;;;9.93;8.45;;;;;;;10.79;77.10;99309.31;4974593;28;20058;-79
2022/12/26 08:25:53;;;;;;;10.25;7.80;;;;;;;10.81;77.39;99307.41;4990995;28;20054;-78
2022/12/26 08:28:19;;;;;;;10.02;8.65;;;;;;;10.84;77.03;99316.88;4991548;28;20089;-79
2022/12/26 08:30:46;;;;;;;10.55;8.93;;;;;;;10.85;76.93;99307.22;4991754;28;20425;-79
2022/12/26 08:33:12;;;;;;;10.20;8.70;;;;;;;10.87;76.93;99318.50;4991400;28;20121;-79
2022/12/26 08:35:39;;;;;;;9.00;7.63;;;;;;;10.89;76.95;99311.34;4991308;28;20058;-78
2022/12/26 08:38:07;;;;;;;8.85;7.47;;;;;;;10.93;76.88;99304.91;4972841;28;20089;-78
2022/12/26 08:40:33;;;;;;;9.18;6.82;;;;;;;10.97;76.85;99302.91;4991553;28;20066;-79
2022/12/26 08:43:09;;;;;;;8.05;7.15;;;;;;;11.00;76.82;99305.34;4991261;28;20065;-79
2022/12/26 08:46:08;;;;;;;9.07;6.63;;;;;;;11.02;76.11;99309.56;4990620;28;20420;-78
2022/12/26 08:48:36;;;;;;;8.02;6.55;;;;;;;11.08;76.71;99309.19;4991075;28;20149;-78
2022/12/26 08:51:07;;;;;;;7.38;6.35;;;;;;;11.13;76.02;99315.91;4991104;28;20050;-78
2022/12/26 08:53:35;;;;;;;12.68;6.80;;;;;;;11.16;76.51;99321.84;4991302;28;20113;-78
2022/12/26 08:56:04;;;;;;;7.88;6.03;;;;;;;11.21;76.61;99325.00;4990702;28;20057;-79
2022/12/26 08:58:31;;;;;;;8.63;5.47;;;;;;;11.25;76.37;99304.56;4990761;28;20054;-78
2022/12/26 09:01:16;;;;;;;6.80;5.80;;;;;;;11.25;75.35;99299.28;4990788;28;20061;-79
2022/12/26 09:03:43;;;;;;;6.43;5.22;;;;;;;11.33;76.14;99302.25;4989309;28;20125;-78
2022/12/26 09:06:11;;;;;;;7.65;5.63;;;;;;;11.35;75.85;99283.72;4990114;28;20086;-78
2022/12/26 09:08:38;;;;;;;7.30;5.90;;;;;;;11.38;75.52;99286.13;4990532;28;20528;-78
2022/12/26 09:11:13;;;;;;;6.43;5.20;;;;;;;11.41;74.98;99298.25;4990669;28;20096;-78
2022/12/26 09:13:41;;;;;;;7.07;4.63;;;;;;;11.44;75.33;99284.88;4973528;28;20066;-78
2022/12/26 09:16:14;;;;;;;5.35;4.55;;;;;;;11.45;75.05;99294.47;4990597;28;20496;-79
2022/12/26 09:18:42;;;;;;;7.05;5.25;;;;;;;11.48;75.23;99294.28;4990575;28;20105;-79
2022/12/26 09:21:10;;;;;;;7.40;4.97;;;;;;;11.48;75.08;99294.28;4990745;28;20105;-79
2022/12/26 09:23:38;;;;;;;7.47;5.10;;;;;;;11.48;74.83;99304.81;4991110;28;20125;-78
2022/12/26 09:26:16;;;;;;;5.47;4.72;;;;;;;11.45;73.31;99310.28;4990404;28;20050;-79
2022/12/26 09:28:45;;;;;;;8.02;4.35;;;;;;;11.49;74.82;99300.38;4990417;28;20576;-78
2022/12/26 09:31:14;;;;;;;7.30;4.50;;;;;;;11.50;74.61;99313.44;4973342;28;20069;-79
2022/12/26 09:33:41;;;;;;;7.55;4.15;;;;;;;11.51;74.70;99309.84;4990562;28;20418;-78
2022/12/26 09:36:11;;;;;;;6.25;4.30;;;;;;;11.52;74.08;99301.03;4990383;28;20109;-79
2022/12/26 09:38:41;;;;;;;7.68;4.43;;;;;;;11.55;74.63;99316.59;4990361;28;20517;-79
2022/12/26 09:41:28;;;;;;;6.45;4.30;;;;;;;11.53;73.14;99315.88;4990617;28;20081;-79
2022/12/26 09:44:22;;;;;;;4.13;3.70;;;;;;;11.56;72.62;99302.47;4973499;28;20085;-79
2022/12/26 09:47:04;;;;;;;5.25;4.20;;;;;;;11.61;74.02;99312.72;4990231;28;20051;-79
2022/12/26 09:49:40;;;;;;;4.88;3.83;;;;;;;11.63;73.41;99308.19;4990627;28;20054;-79
2022/12/26 09:52:14;;;;;;;6.00;4.00;;;;;;;11.67;73.56;99314.09;4990523;28;20058;-79
2022/12/26 09:54:51;;;;;;;6.25;3.60;;;;;;;11.69;73.10;99317.44;4990214;28;20050;-79
2022/12/26 09:57:25;;;;;;;8.75;3.45;;;;;;;11.74;73.18;99310.09;4990407;28;20058;-79
2022/12/26 10:00:03;;;;;;;6.68;3.15;;;;;;;11.76;73.16;99324.00;4990504;28;20058;-79
2022/12/26 10:02:30;;;;;;;5.53;3.38;;;;;;;11.81;74.07;99321.88;4990400;28;20477;-79
2022/12/26 10:04:56;;;;;;;4.70;3.10;;;;;;;11.82;73.47;99335.91;4994171;28;20057;-79
2022/12/26 10:07:47;;;;;;;5.15;3.22;;;;;;;11.78;71.15;99293.06;4994148;28;20077;-78
2022/12/26 10:10:23;;;;;;;5.65;3.00;;;;;;;11.82;72.04;99310.38;4994389;28;20088;-79
2022/12/26 10:12:55;;;;;;;8.02;3.05;;;;;;;11.86;73.87;99309.22;4993908;28;20512;-78
2022/12/26 10:15:33;;;;;;;4.83;2.73;;;;;;;11.86;71.97;99318.94;4993952;28;20057;-79
2022/12/26 10:18:24;;;;;;;4.72;2.85;;;;;;;11.86;71.29;99316.28;4991354;28;20058;-79
2022/12/26 10:21:19;;;;;;;6.40;2.78;;;;;;;11.86;71.11;99322.41;4993943;28;20129;-78
2022/12/26 10:23:57;;;;;;;4.18;2.70;;;;;;;11.88;71.83;99319.66;4991948;28;20539;-78
2022/12/26 10:26:40;;;;;;;4.72;2.92;;;;;;;11.88;71.99;99321.47;4993219;28;20058;-79
2022/12/26 10:29:18;;;;;;;5.32;2.70;;;;;;;11.89;71.89;99333.69;4993953;28;20074;-79
2022/12/26 10:31:51;;;;;;;6.88;2.90;;;;;;;11.89;72.55;99334.53;4993699;28;20050;-78
2022/12/26 10:34:28;;;;;;;4.30;2.00;;;;;;;11.86;71.73;99330.31;4993016;28;20480;-79
2022/12/26 10:37:02;;;;;;;8.13;2.75;;;;;;;11.88;72.17;99324.09;4992708;28;20062;-78
2022/12/26 10:39:47;;;;;;;8.27;2.63;;;;;;;11.88;71.98;99326.75;4993612;28;20101;-79
2022/12/26 10:42:29;;;;;;;5.90;2.83;;;;;;;11.82;69.79;99342.00;4993545;28;20086;-78
2022/12/26 10:44:57;;;;;;;6.00;2.38;;;;;;;11.86;71.75;99332.13;4993085;28;20086;-78
2022/12/26 10:47:29;;;;;;;3.90;2.10;;;;;;;11.83;71.93;99327.91;4974894;28;20568;-78
2022/12/26 10:49:58;;;;;;;5.13;2.55;;;;;;;11.85;72.87;99318.06;4985781;28;20085;-78
2022/12/26 10:52:31;;;;;;;6.03;2.90;;;;;;;11.87;72.70;99331.16;4993360;28;20062;-79
2022/12/26 10:54:59;;;;;;;5.38;2.40;;;;;;;11.91;72.70;99323.88;4992874;28;20070;-78
2022/12/26 10:57:49;;;;;;;6.93;2.53;;;;;;;11.92;72.54;99330.84;4993016;28;20278;-78
2022/12/26 11:00:21;;;;;;;6.18;2.80;;;;;;;11.93;71.66;99320.16;4993176;28;20062;-79
2022/12/26 11:03:10;;;;;;;5.47;2.38;;;;;;;11.92;70.58;99315.03;4993256;28;20054;-78
2022/12/26 11:05:39;;;;;;;4.40;2.40;;;;;;;11.97;72.04;99313.72;4992828;28;20054;-79
2022/12/26 11:08:48;;;;;;;2.92;2.13;;;;;;;11.95;70.41;99315.66;4992817;28;20671;-78
2022/12/26 11:11:25;;;;;;;6.13;2.20;;;;;;;11.96;70.68;99335.78;4992737;28;20054;-78
2022/12/26 11:13:54;;;;;;;3.88;2.42;;;;;;;11.99;72.21;99327.66;4992666;28;20058;-78
2022/12/26 11:16:38;;;;;;;4.20;2.20;;;;;;;11.96;70.90;99321.78;4991859;28;20499;-79
2022/12/26 11:19:05;;;;;;;4.90;1.95;;;;;;;11.99;72.26;99329.47;4992722;28;20536;-78
2022/12/26 11:21:32;;;;;;;6.03;2.50;;;;;;;11.99;72.15;99329.47;4992671;28;20058;-78
2022/12/26 11:24:08;;;;;;;2.95;2.00;;;;;;;11.92;71.98;99323.75;4992696;28;20081;-78
2022/12/26 11:26:35;;;;;;;2.80;2.35;;;;;;;11.91;72.39;99326.50;4992284;28;20046;-79
2022/12/26 11:29:06;;;;;;;6.93;2.47;;;;;;;11.86;72.05;99313.66;4975265;28;20125;-78
2022/12/26 11:31:33;;;;;;;4.70;2.30;;;;;;;11.83;72.58;99332.31;4975428;28;20787;-78
2022/12/26 11:34:00;;;;;;;6.45;2.55;;;;;;;11.79;72.60;99330.84;4987499;28;20143;-78
2022/12/26 11:36:28;;;;;;;7.70;2.60;;;;;;;11.75;72.88;99318.81;4992246;28;20090;-78
2022/12/26 11:39:02;;;;;;;4.15;2.47;;;;;;;11.70;72.84;99329.69;4992299;28;20105;-78
2022/12/26 11:41:31;;;;;;;3.80;2.30;;;;;;;11.69;73.32;99328.00;4992289;28;20584;-78
2022/12/26 11:44:13;;;;;;;4.75;2.47;;;;;;;11.63;73.31;99345.09;4975159;28;20066;-78
2022/12/26 11:46:47;;;;;;;2.90;2.28;;;;;;;11.60;73.67;99345.31;4992326;28;20106;-78
2022/12/26 11:49:37;;;;;;;3.50;2.17;;;;;;;11.56;73.74;99338.53;4992404;28;20109;-78
2022/12/26 11:52:32;;;;;;;3.35;1.90;;;;;;;11.55;73.52;99356.16;4992293;28;20057;-78
2022/12/26 11:54:59;;;;;;;3.00;2.00;;;;;;;11.56;73.68;99343.81;4974732;28;20081;-78
2022/12/26 11:57:29;;;;;;;5.53;1.83;;;;;;;11.54;73.79;99361.50;4992001;28;20318;-78
2022/12/26 12:00:14;;;;;;;6.53;2.40;;;;;;;11.47;73.52;99361.94;4992207;28;20141;-78
2022/12/26 12:02:41;;;;;;;3.53;2.05;;;;;;;11.50;73.94;99355.63;4992346;28;20078;-78
2022/12/26 12:05:37;;;;;;;3.65;1.80;;;;;;;11.45;73.86;99357.72;4991678;28;20492;-78
2022/12/26 12:08:15;;;;;;;3.28;1.77;;;;;;;11.45;73.77;99353.28;4989065;28;20110;-78
2022/12/26 12:10:46;;;;;;;6.80;2.38;;;;;;;11.46;74.11;99360.25;4990527;28;20058;-78
2022/12/26 12:13:25;;;;;;;4.10;1.80;;;;;;;11.42;74.13;99357.91;4990482;28;20472;-78
2022/12/26 12:16:10;;;;;;;5.10;1.60;;;;;;;11.40;73.53;99386.19;4979257;28;20058;-78
2022/12/26 12:18:50;;;;;;;4.55;1.67;;;;;;;11.37;72.48;99381.97;4991648;28;20451;-78
2022/12/26 12:21:32;;;;;;;7.43;1.40;;;;;;;11.31;71.44;99400.78;4991879;28;20401;-78
2022/12/26 12:24:14;;;;;;;4.10;1.63;;;;;;;11.23;71.17;99409.22;4991966;28;20050;-78
2022/12/26 12:26:59;;;;;;;6.53;1.42;;;;;;;11.11;69.54;99402.97;4990921;28;20054;-78
2022/12/26 12:29:39;;;;;;;8.07;1.30;;;;;;;11.03;70.14;99421.06;4990834;28;20066;-78
2022/12/26 12:32:25;;;;;;;8.27;1.60;;;;;;;10.91;70.16;99418.25;4991545;28;20100;-78
2022/12/26 12:35:40;;;;;;;7.90;2.55;;;;;;;10.77;68.67;99429.66;4991328;28;20572;-78
2022/12/26 12:38:30;;;;;;;5.50;1.33;;;;;;;10.68;70.49;99432.88;4982122;28;20058;-78
2022/12/26 12:41:32;;;;;;;5.65;1.52;;;;;;;10.59;69.53;99430.81;4991266;28;20405;-78
2022/12/26 12:44:28;;;;;;;8.73;1.20;;;;;;;10.52;70.74;99439.09;4990051;28;20058;-78
2022/12/26 12:47:14;;;;;;;6.28;1.40;;;;;;;10.48;70.86;99458.66;4988139;28;20582;-78
2022/12/26 12:49:47;;;;;;;5.65;0.93;;;;;;;10.46;71.97;99455.25;4990741;28;20058;-78
2022/12/26 12:52:41;;;;;;;6.53;1.55;;;;;;;10.38;70.50;99457.47;4973486;28;20099;-78
2022/12/26 12:55:38;;;;;;;6.43;1.45;;;;;;;10.33;70.59;99459.53;4990917;28;20062;-78
2022/12/26 12:58:14;;;;;;;7.10;1.65;;;;;;;10.33;71.00;99470.06;4990811;28;20057;-78
2022/12/26 13:00:45;;;;;;;6.07;1.33;;;;;;;10.29;70.83;99472.06;4990974;28;20109;-78
2022/12/26 13:03:29;;;;;;;5.88;0.93;;;;;;;10.24;69.68;99466.22;4991095;28;20050;-77
2022/12/26 13:06:10;;;;;;;6.05;1.63;;;;;;;10.19;69.16;99471.75;4986948;28;20050;-78
2022/12/26 13:08:42;;;;;;;6.72;1.42;;;;;;;10.18;69.36;99477.97;4990561;28;20113;-78
2022/12/26 13:11:08;;;;;;;4.30;1.05;;;;;;;10.15;70.54;99472.88;4990516;28;20145;-78
2022/12/26 13:14:06;;;;;;;3.78;0.98;;;;;;;10.06;68.92;99479.56;4990736;28;20051;-78
2022/12/26 13:16:42;;;;;;;8.95;1.02;;;;;;;10.04;69.33;99486.66;4979751;28;20509;-78
2022/12/26 13:19:24;;;;;;;7.00;1.10;;;;;;;9.99;69.28;99479.03;4973129;28;20064;-79
2022/12/26 13:21:56;;;;;;;5.05;1.10;;;;;;;10.00;69.93;99485.16;4990462;28;20506;-78
2022/12/26 13:24:38;;;;;;;6.53;1.58;;;;;;;9.97;68.95;99485.31;4990628;28;20082;-78
2022/12/26 13:27:26;;;;;;;4.88;1.10;;;;;;;9.98;71.22;99487.88;4990269;28;20054;-78
2022/12/26 13:29:52;;;;;;;4.65;1.05;;;;;;;9.99;71.06;99488.72;4990497;28;20080;-79
2022/12/26 13:32:19;;;;;;;5.25;1.02;;;;;;;9.97;70.68;99501.97;4990730;28;20117;-79
2022/12/26 13:34:46;;;;;;;4.72;1.25;;;;;;;9.95;70.99;99498.59;4990316;28;20058;-78
2022/12/26 13:37:31;;;;;;;4.15;1.15;;;;;;;9.92;69.45;99504.00;4990029;28;20050;-78
2022/12/26 13:40:02;;;;;;;5.93;1.02;;;;;;;9.95;70.58;99509.09;4990362;28;20050;-78
2022/12/26 13:45:40;;;;;;;6.10;1.17;;;;;;;9.96;70.03;99521.31;4990332;28;20487;-78
2022/12/26 13:48:16;;;;;;;7.10;1.08;;;;;;;9.93;68.77;99529.38;4990138;28;20050;-78
2022/12/26 13:50:50;;;;;;;7.28;1.65;;;;;;;9.94;69.15;99538.13;4990227;28;20058;-78
2022/12/26 13:53:38;;;;;;;7.57;1.42;;;;;;;9.92;69.44;99535.56;4990317;28;20481;-79
2022/12/26 13:58:58;;;;;;;3.00;0.98;;;;;;;9.91;70.36;99552.28;4948600;22;20059;-82
2022/12/26 14:01:32;;;;;;;8.30;1.20;;;;;;;9.87;69.04;99548.13;4989231;28;20475;-81
2022/12/26 14:04:36;;;;;;;4.95;1.08;;;;;;;9.84;68.32;99541.28;4987485;28;20106;-79
2022/12/26 14:07:40;;;;;;;4.82;1.10;;;;;;;9.85;68.70;99558.75;4966498;28;20086;-81
2022/12/26 14:10:16;;;;;;;6.32;1.30;;;;;;;9.86;69.03;99555.16;4982108;28;20058;-82
2022/12/26 14:13:19;;;;;;;7.80;1.40;;;;;;;9.84;68.75;99549.16;4990842;28;20085;-84
2022/12/26 14:15:52;;;;;;;6.97;1.38;;;;;;;9.88;69.84;99548.03;4973770;28;20145;-84
2022/12/26 14:18:18;;;;;;;3.75;1.00;;;;;;;9.87;69.71;99548.13;4990600;28;20054;-83